Time;durP1;ratioP1;P1;durP2;ratioP2;P2;SDS_P1;SDS_P2;PMS_P1;PMS_P2;Temp;Humidity;BMP_temperature;BMP_pressure;BME280_temperature;BME280_humidity;BME280_pressure;Samples;Min_cycle;Max_cycle;Signal;HPM_P1;HPM_P2
2022/03/25 00:00:36;;;;;;;197.73;83.55;;;3.50;99.90;;;;;;4976045;28;20474;-87
2022/03/25 00:03:05;;;;;;;151.40;81.30;;;3.70;99.90;;;;;;4975324;28;20132;-88
2022/03/25 00:05:31;;;;;;;142.98;78.53;;;3.60;99.90;;;;;;4974933;28;20052;-87
2022/03/25 00:07:56;;;;;;;166.75;82.28;;;3.40;99.90;;;;;;4976204;28;20049;-88
2022/03/25 00:10:34;;;;;;;125.45;66.38;;;4.00;99.90;;;;;;4975141;28;20478;-87
2022/03/25 00:13:00;;;;;;;122.32;65.35;;;3.70;99.90;;;;;;4973645;28;20108;-89
2022/03/25 00:15:26;;;;;;;99.25;59.60;;;4.00;99.90;;;;;;4975496;28;20041;-87
2022/03/25 00:17:57;;;;;;;159.57;74.70;;;4.10;99.90;;;;;;4976279;28;20053;-88
2022/03/25 00:20:23;;;;;;;109.40;63.38;;;3.50;99.90;;;;;;4975192;28;20104;-89
2022/03/25 00:22:49;;;;;;;116.47;58.95;;;3.00;99.90;;;;;;4975778;28;20050;-89
2022/03/25 00:25:15;;;;;;;113.22;62.90;;;3.20;99.90;;;;;;4975407;28;20042;-89
2022/03/25 00:27:41;;;;;;;388.33;61.15;;;2.80;99.90;;;;;;4975085;28;20042;-89
2022/03/25 00:30:07;;;;;;;160.52;77.18;;;2.80;99.90;;;;;;4975308;28;20410;-89
2022/03/25 00:32:33;;;;;;;149.90;75.25;;;3.00;99.90;;;;;;4976019;28;20042;-89
2022/03/25 00:35:04;;;;;;;137.40;70.05;;;2.90;99.90;;;;;;4975657;28;20048;-89
2022/03/25 00:37:30;;;;;;;146.75;77.13;;;2.90;99.90;;;;;;4976402;28;20041;-89
2022/03/25 00:39:59;;;;;;;162.18;79.47;;;3.70;99.90;;;;;;4976223;28;20033;-88
2022/03/25 00:42:28;;;;;;;136.02;71.45;;;2.10;99.90;;;;;;4975547;28;20049;-88
2022/03/25 00:44:55;;;;;;;150.32;75.68;;;3.00;99.90;;;;;;4976620;28;20077;-88
2022/03/25 00:47:23;;;;;;;150.00;73.70;;;3.90;99.90;;;;;;4975022;28;20050;-89
2022/03/25 00:49:50;;;;;;;155.65;76.28;;;3.00;99.90;;;;;;4976459;28;20045;-89
2022/03/25 00:52:16;;;;;;;158.93;79.57;;;3.10;99.90;;;;;;4975170;28;20042;-89
2022/03/25 00:54:42;;;;;;;160.68;78.90;;;3.10;99.90;;;;;;4975896;28;20123;-88
2022/03/25 00:57:08;;;;;;;167.18;76.13;;;3.80;99.90;;;;;;4975564;28;20049;-90
2022/03/25 00:59:33;;;;;;;142.73;73.90;;;3.30;99.90;;;;;;4975932;28;20501;-88
2022/03/25 01:02:00;;;;;;;146.65;74.38;;;3.20;99.90;;;;;;4975501;28;20057;-88
2022/03/25 01:04:27;;;;;;;139.93;74.43;;;4.40;99.90;;;;;;4975431;28;20041;-89
2022/03/25 01:06:53;;;;;;;149.73;74.68;;;3.60;99.90;;;;;;4975902;28;20561;-88
2022/03/25 01:09:19;;;;;;;139.60;72.63;;;3.10;99.90;;;;;;4958897;28;20144;-87
2022/03/25 01:11:45;;;;;;;208.98;75.78;;;4.10;99.90;;;;;;4975512;28;20141;-87
2022/03/25 01:14:11;;;;;;;134.63;69.00;;;3.70;99.90;;;;;;4974669;28;20489;-87
2022/03/25 01:16:36;;;;;;;171.00;79.05;;;2.90;99.90;;;;;;4975160;28;20050;-88
2022/03/25 01:19:03;;;;;;;156.18;76.75;;;2.90;99.90;;;;;;4976569;28;20049;-90
2022/03/25 01:21:29;;;;;;;160.57;78.50;;;3.70;99.90;;;;;;4975921;28;20042;-90
2022/03/25 01:24:06;;;;;;;156.88;76.22;;;3.00;99.90;;;;;;4975431;28;20437;-89
2022/03/25 01:26:32;;;;;;;152.65;74.72;;;2.90;99.90;;;;;;4975888;28;20469;-89
2022/03/25 01:28:59;;;;;;;152.25;74.13;;;2.90;99.90;;;;;;4975999;28;20081;-89
2022/03/25 01:31:24;;;;;;;141.60;71.95;;;3.80;99.90;;;;;;4976940;28;20042;-89
2022/03/25 01:33:50;;;;;;;169.98;76.35;;;3.00;99.90;;;;;;4979211;28;20053;-88
2022/03/25 01:36:16;;;;;;;146.13;73.35;;;3.30;99.90;;;;;;4977826;28;20169;-88
2022/03/25 01:38:42;;;;;;;167.02;77.07;;;3.10;99.90;;;;;;4978631;28;20520;-88
2022/03/25 01:41:08;;;;;;;220.85;78.78;;;2.90;99.90;;;;;;4977943;28;20034;-88
2022/03/25 01:43:50;;;;;;;133.13;68.97;;;2.70;99.90;;;;;;4977892;28;20172;-88
2022/03/25 01:46:17;;;;;;;160.07;78.00;;;3.40;99.90;;;;;;4978071;28;20038;-88
2022/03/25 01:48:43;;;;;;;147.07;71.20;;;2.80;99.90;;;;;;4978890;28;20061;-88
2022/03/25 01:51:09;;;;;;;138.88;72.38;;;3.30;99.90;;;;;;4976772;28;20394;-89
2022/03/25 01:53:35;;;;;;;141.40;70.38;;;2.80;99.90;;;;;;4978821;28;20448;-88
2022/03/25 01:56:07;;;;;;;126.78;67.40;;;3.00;99.90;;;;;;4978274;28;20046;-89
2022/03/25 01:58:33;;;;;;;126.35;66.72;;;2.70;99.90;;;;;;4978004;28;20064;-88
2022/03/25 02:01:02;;;;;;;119.15;63.25;;;2.70;99.90;;;;;;4978094;28;20045;-88
2022/03/25 02:03:27;;;;;;;268.08;61.03;;;3.20;99.90;;;;;;4978258;28;20173;-89
2022/03/25 02:05:53;;;;;;;327.60;59.03;;;2.80;99.90;;;;;;4977802;28;20125;-88
2022/03/25 02:08:20;;;;;;;89.70;52.08;;;2.20;99.90;;;;;;4977817;28;20054;-88
2022/03/25 02:10:52;;;;;;;86.15;54.88;;;2.10;99.90;;;;;;4978082;28;20050;-88
2022/03/25 02:13:18;;;;;;;80.45;46.83;;;1.90;99.90;;;;;;4977410;28;20133;-88
2022/03/25 02:15:47;;;;;;;61.42;42.42;;;3.30;99.90;;;;;;4978619;28;20124;-89
2022/03/25 02:18:15;;;;;;;50.65;32.95;;;1.80;99.90;;;;;;4977285;28;20042;-89
2022/03/25 02:20:42;;;;;;;131.93;65.97;;;1.50;99.90;;;;;;4977803;28;20100;-89
2022/03/25 02:23:08;;;;;;;60.28;37.95;;;1.90;99.90;;;;;;4977808;28;20069;-91
2022/03/25 02:25:44;;;;;;;49.58;32.78;;;1.80;99.90;;;;;;4978424;28;20104;-90
2022/03/25 02:28:10;;;;;;;79.43;35.47;;;2.00;99.90;;;;;;4977089;28;20145;-89
2022/03/25 02:30:37;;;;;;;687.80;54.38;;;1.70;99.90;;;;;;4978255;28;20052;-89
2022/03/25 02:33:04;;;;;;;160.75;41.78;;;2.20;99.90;;;;;;4976950;28;20037;-90
2022/03/25 02:35:39;;;;;;;69.22;44.60;;;2.30;99.90;;;;;;4977973;28;20054;-89
2022/03/25 02:38:06;;;;;;;151.77;51.10;;;3.30;99.90;;;;;;4977817;28;20049;-90
2022/03/25 02:40:31;;;;;;;491.10;66.63;;;1.60;99.90;;;;;;4978047;28;20502;-90
2022/03/25 02:42:57;;;;;;;1367.13;101.63;;;1.40;99.90;;;;;;4983336;28;20083;-91
2022/03/25 02:45:22;;;;;;;1999.90;112.38;;;1.80;99.90;;;;;;4977728;28;20128;-89
2022/03/25 02:47:48;;;;;;;961.03;66.65;;;1.60;99.90;;;;;;4997202;28;20107;-90
2022/03/25 02:50:14;;;;;;;778.25;67.88;;;2.50;99.90;;;;;;4989865;28;20485;-90
2022/03/25 02:52:41;;;;;;;659.10;57.67;;;1.60;99.90;;;;;;4978012;28;20064;-90
2022/03/25 02:55:08;;;;;;;171.00;48.63;;;1.60;99.90;;;;;;4976707;28;20171;-90
2022/03/25 02:57:35;;;;;;;363.52;53.90;;;1.50;99.90;;;;;;4977873;28;20046;-91
2022/03/25 03:00:01;;;;;;;103.65;45.95;;;1.60;99.90;;;;;;4977011;28;20069;-92
2022/03/25 03:02:27;;;;;;;136.32;43.17;;;2.30;99.90;;;;;;4984065;28;20525;-91
2022/03/25 03:04:53;;;;;;;161.98;43.75;;;1.50;99.90;;;;;;4997068;28;20037;-90
2022/03/25 03:07:18;;;;;;;233.55;44.85;;;1.50;99.90;;;;;;4996347;28;20049;-91
2022/03/25 03:09:44;;;;;;;556.03;49.33;;;1.90;99.90;;;;;;4996427;28;20037;-92
2022/03/25 03:12:10;;;;;;;248.52;39.53;;;1.70;99.90;;;;;;4996549;28;20041;-91
2022/03/25 03:14:36;;;;;;;327.65;43.88;;;1.40;99.90;;;;;;4996712;28;20084;-91
2022/03/25 03:17:04;;;;;;;636.75;52.63;;;1.30;99.90;;;;;;4996309;28;20146;-91
2022/03/25 03:19:31;;;;;;;111.68;41.25;;;1.30;99.90;;;;;;4996198;28;20080;-92
2022/03/25 03:21:58;;;;;;;308.23;40.88;;;1.20;99.90;;;;;;4996390;28;20045;-90
2022/03/25 03:24:23;;;;;;;55.65;35.50;;;1.40;99.90;;;;;;4996005;28;20128;-91
2022/03/25 03:26:57;;;;;;;204.20;41.33;;;1.20;99.90;;;;;;4996730;28;20180;-89
2022/03/25 03:29:23;;;;;;;470.00;52.63;;;1.10;99.90;;;;;;4994791;28;20215;-90
2022/03/25 03:31:58;;;;;;;927.25;62.90;;;1.20;99.90;;;;;;4996346;28;20107;-91
2022/03/25 03:34:24;;;;;;;679.78;53.78;;;2.10;99.90;;;;;;4981337;28;20073;-91
2022/03/25 03:36:50;;;;;;;1386.05;64.15;;;1.30;99.90;;;;;;4976924;28;20426;-92
2022/03/25 03:39:16;;;;;;;97.35;42.80;;;1.20;99.90;;;;;;4975901;28;20520;-91
2022/03/25 03:41:42;;;;;;;276.75;51.80;;;1.20;99.90;;;;;;4977809;28;20077;-92
2022/03/25 03:44:07;;;;;;;757.33;62.00;;;2.20;99.90;;;;;;4975736;28;20088;-93
2022/03/25 03:46:33;;;;;;;128.27;46.10;;;1.20;99.90;;;;;;4977430;28;20042;-92
2022/03/25 03:48:59;;;;;;;109.75;44.85;;;1.50;99.90;;;;;;4977063;28;20075;-92
2022/03/25 03:51:25;;;;;;;833.53;64.28;;;1.20;99.90;;;;;;4976086;28;20177;-91
2022/03/25 03:53:51;;;;;;;734.05;62.13;;;1.10;99.90;;;;;;4976537;28;20136;-92
2022/03/25 03:56:16;;;;;;;820.08;66.15;;;1.10;99.90;;;;;;4976951;28;20042;-92
2022/03/25 03:58:42;;;;;;;158.35;45.08;;;1.70;99.90;;;;;;4975604;28;20045;-91
2022/03/25 04:01:08;;;;;;;490.05;52.60;;;2.00;99.90;;;;;;4976341;28;20065;-92
2022/03/25 04:03:43;;;;;;;186.80;38.78;;;1.20;99.90;;;;;;4976382;28;20059;-92
2022/03/25 04:06:09;;;;;;;524.65;58.25;;;1.10;99.90;;;;;;4975787;28;20085;-93
2022/03/25 04:08:35;;;;;;;761.15;65.28;;;1.10;99.90;;;;;;4976236;28;20085;-92
2022/03/25 04:11:01;;;;;;;129.43;51.28;;;1.80;99.90;;;;;;4975862;28;20042;-93
2022/03/25 04:13:27;;;;;;;581.25;71.88;;;1.00;99.90;;;;;;4975948;28;20042;-91
2022/03/25 04:15:53;;;;;;;148.23;52.85;;;1.00;99.90;;;;;;4976481;28;20045;-91
2022/03/25 04:18:18;;;;;;;128.65;50.13;;;1.00;99.90;;;;;;4975662;28;20061;-92
2022/03/25 04:20:44;;;;;;;98.65;43.50;;;1.00;99.90;;;;;;4976087;28;20135;-92
2022/03/25 04:23:10;;;;;;;99.85;48.38;;;0.90;99.90;;;;;;4975983;28;20046;-92
2022/03/25 04:25:36;;;;;;;86.70;48.15;;;0.80;99.90;;;;;;4975529;28;20046;-92
2022/03/25 04:28:01;;;;;;;67.68;42.45;;;0.80;99.90;;;;;;4976440;28;20073;-92
2022/03/25 04:30:29;;;;;;;82.22;46.13;;;0.80;99.90;;;;;;4975421;28;20497;-92
2022/03/25 04:32:56;;;;;;;83.82;46.92;;;1.20;99.90;;;;;;4975296;28;20046;-91
2022/03/25 04:35:32;;;;;;;72.57;42.17;;;0.80;99.90;;;;;;4975717;28;20045;-90
2022/03/25 04:37:58;;;;;;;83.15;45.47;;;2.00;99.90;;;;;;4976014;28;20069;-89
2022/03/25 04:40:28;;;;;;;74.93;42.60;;;1.60;99.90;;;;;;4975797;28;20442;-90
2022/03/25 04:42:56;;;;;;;82.68;44.00;;;0.90;99.90;;;;;;4976189;28;20128;-89
2022/03/25 04:45:24;;;;;;;85.93;47.78;;;1.20;99.90;;;;;;4975116;28;20104;-89
2022/03/25 04:47:51;;;;;;;72.32;43.55;;;0.70;99.90;;;;;;4975665;28;20049;-90
2022/03/25 04:50:17;;;;;;;93.60;48.83;;;1.50;99.90;;;;;;4975835;28;20034;-90
2022/03/25 04:52:44;;;;;;;95.20;50.63;;;0.60;99.90;;;;;;4976521;28;20042;-89
2022/03/25 04:55:11;;;;;;;64.53;41.30;;;1.00;99.90;;;;;;4974837;28;20486;-89
2022/03/25 04:57:38;;;;;;;96.13;49.95;;;0.80;99.90;;;;;;4975757;28;20057;-88
2022/03/25 05:00:05;;;;;;;89.70;45.65;;;0.80;99.90;;;;;;4974798;28;20049;-88
2022/03/25 05:02:30;;;;;;;455.45;59.72;;;0.80;99.90;;;;;;4974381;28;20124;-89
2022/03/25 05:04:56;;;;;;;97.28;47.45;;;0.80;99.90;;;;;;4975515;28;20141;-89
2022/03/25 05:07:22;;;;;;;88.03;47.13;;;0.80;99.90;;;;;;4994628;28;20489;-88
2022/03/25 05:09:48;;;;;;;89.60;49.05;;;0.80;99.90;;;;;;4995186;28;20133;-87
2022/03/25 05:12:14;;;;;;;86.25;46.53;;;0.80;99.90;;;;;;4978765;28;20046;-89
2022/03/25 05:14:40;;;;;;;82.82;44.65;;;0.80;99.90;;;;;;4977307;28;20041;-88
2022/03/25 05:17:06;;;;;;;97.70;50.85;;;0.80;99.90;;;;;;4995372;28;20197;-88
2022/03/25 05:19:38;;;;;;;89.90;49.58;;;0.70;99.90;;;;;;4994989;28;20111;-89
2022/03/25 05:22:04;;;;;;;85.95;47.53;;;0.60;99.90;;;;;;4978191;28;20042;-88
2022/03/25 05:24:30;;;;;;;105.75;55.42;;;0.90;99.90;;;;;;4994785;28;20089;-88
2022/03/25 05:26:59;;;;;;;112.45;55.13;;;1.60;99.90;;;;;;4978858;28;20052;-87
2022/03/25 05:29:28;;;;;;;96.85;50.33;;;1.80;99.90;;;;;;4977970;28;20383;-89
2022/03/25 05:31:54;;;;;;;96.18;49.85;;;0.60;99.90;;;;;;4978753;28;20132;-96
2022/03/25 05:34:20;;;;;;;99.43;49.40;;;1.20;99.90;;;;;;4987932;28;20492;-89
2022/03/25 05:36:52;;;;;;;120.63;55.83;;;0.60;99.90;;;;;;4997852;28;20052;-89
2022/03/25 05:39:17;;;;;;;103.38;51.78;;;0.50;99.90;;;;;;4997337;28;20048;-89
2022/03/25 05:41:43;;;;;;;241.30;66.10;;;0.70;99.90;;;;;;4998965;28;20041;-91
2022/03/25 05:44:15;;;;;;;197.32;58.38;;;0.70;99.90;;;;;;4996745;28;20511;-90
2022/03/25 05:46:44;;;;;;;117.30;54.22;;;1.70;99.90;;;;;;4999134;28;20060;-90
2022/03/25 05:49:10;;;;;;;117.85;55.97;;;0.80;99.90;;;;;;5014158;28;20053;-92
2022/03/25 05:51:35;;;;;;;163.73;60.65;;;1.00;99.90;;;;;;5013964;28;20041;-91
2022/03/25 05:54:01;;;;;;;152.73;65.07;;;1.00;99.90;;;;;;4997415;28;20048;-88
2022/03/25 05:56:27;;;;;;;153.75;64.40;;;2.00;99.90;;;;;;5013623;28;20055;-86
2022/03/25 05:58:52;;;;;;;142.88;65.78;;;1.30;99.90;;;;;;5012634;28;20500;-88
2022/03/25 06:01:18;;;;;;;161.80;65.32;;;2.60;99.90;;;;;;5007981;28;20085;-88
2022/03/25 06:03:44;;;;;;;170.13;65.50;;;2.90;99.90;;;;;;4992936;28;20547;-88
2022/03/25 06:06:10;;;;;;;120.82;58.40;;;2.00;99.90;;;;;;4990468;28;20124;-89
2022/03/25 06:08:48;;;;;;;156.52;66.55;;;1.70;99.90;;;;;;5006309;28;20084;-89
2022/03/25 06:11:17;;;;;;;126.38;59.95;;;2.60;99.90;;;;;;5018929;28;20123;-89
2022/03/25 06:13:48;;;;;;;141.13;63.38;;;2.10;99.90;;;;;;5005461;28;20049;-89
2022/03/25 06:16:13;;;;;;;135.23;63.20;;;2.10;99.90;;;;;;5019131;28;20041;-90
2022/03/25 06:18:39;;;;;;;127.80;61.10;;;2.00;99.90;;;;;;5006509;28;20048;-89
2022/03/25 06:21:05;;;;;;;134.45;60.97;;;2.70;99.90;;;;;;5007107;28;20140;-89
2022/03/25 06:23:30;;;;;;;136.52;64.00;;;2.10;99.90;;;;;;5021408;28;20135;-90
2022/03/25 06:25:56;;;;;;;110.82;59.17;;;2.20;99.90;;;;;;5022943;28;20045;-90
2022/03/25 06:28:24;;;;;;;127.93;60.13;;;2.30;99.90;;;;;;5004596;28;20041;-90
2022/03/25 06:30:56;;;;;;;121.65;59.83;;;2.40;99.90;;;;;;5023278;28;20120;-91
2022/03/25 06:33:22;;;;;;;108.55;53.97;;;2.70;99.90;;;;;;5002519;28;20041;-91
2022/03/25 06:35:48;;;;;;;118.30;59.80;;;2.80;99.90;;;;;;5004899;28;20038;-91
2022/03/25 06:38:14;;;;;;;127.30;59.92;;;3.70;99.90;;;;;;5006859;28;20098;-91
2022/03/25 06:40:40;;;;;;;123.47;59.47;;;2.70;99.90;;;;;;5003030;28;20045;-92
2022/03/25 06:43:09;;;;;;;133.60;60.13;;;2.80;99.90;;;;;;5024995;28;20115;-91
2022/03/25 06:45:34;;;;;;;123.80;57.72;;;2.90;99.90;;;;;;5024312;28;20140;-91
2022/03/25 06:48:12;;;;;;;123.75;58.90;;;3.00;99.90;;;;;;5007241;28;20091;-90
2022/03/25 06:50:38;;;;;;;118.88;58.00;;;3.60;99.90;;;;;;5021331;28;20095;-89
2022/03/25 06:53:04;;;;;;;110.47;55.60;;;3.30;99.90;;;;;;5019873;28;20041;-88
2022/03/25 06:55:33;;;;;;;115.10;56.08;;;3.40;99.90;;;;;;5012324;28;20045;-88
2022/03/25 06:57:59;;;;;;;116.35;57.38;;;3.50;99.90;;;;;;4996497;28;20045;-88
2022/03/25 07:00:25;;;;;;;113.00;57.47;;;3.60;99.90;;;;;;5011064;28;20155;-87
2022/03/25 07:02:51;;;;;;;115.57;57.08;;;4.00;99.90;;;;;;5004881;28;20057;-88
2022/03/25 07:05:17;;;;;;;112.63;57.92;;;4.80;99.90;;;;;;4999348;28;20037;-87
2022/03/25 07:07:44;;;;;;;108.82;57.20;;;4.80;99.90;;;;;;4986309;28;20128;-88
2022/03/25 07:10:17;;;;;;;109.63;58.97;;;4.10;99.90;;;;;;4983238;28;20037;-88
2022/03/25 07:12:45;;;;;;;102.10;55.30;;;4.20;99.90;;;;;;4988052;28;20048;-88
2022/03/25 07:15:12;;;;;;;92.15;54.05;;;4.40;99.90;;;;;;4982661;28;20068;-88
2022/03/25 07:17:38;;;;;;;104.65;53.15;;;4.20;99.90;;;;;;5000535;28;20502;-87
2022/03/25 07:20:06;;;;;;;98.70;53.67;;;5.50;99.90;;;;;;4985882;28;20048;-87
2022/03/25 07:22:32;;;;;;;89.60;52.03;;;4.70;99.90;;;;;;4983791;28;20138;-88
2022/03/25 07:24:57;;;;;;;104.55;51.78;;;4.80;99.90;;;;;;4984770;28;20076;-88
2022/03/25 07:27:23;;;;;;;90.20;50.42;;;6.20;99.90;;;;;;4985079;28;20049;-88
2022/03/25 07:29:49;;;;;;;90.50;50.58;;;5.10;99.90;;;;;;4990189;28;20105;-88
2022/03/25 07:32:14;;;;;;;87.15;50.10;;;5.70;99.90;;;;;;4999214;28;20055;-88
2022/03/25 07:34:43;;;;;;;79.22;46.50;;;5.30;99.90;;;;;;4980357;28;20073;-89
2022/03/25 07:37:10;;;;;;;79.53;47.78;;;5.50;99.90;;;;;;5011579;28;20049;-87
2022/03/25 07:39:35;;;;;;;82.60;46.95;;;5.50;99.90;;;;;;5020383;28;20072;-85
2022/03/25 07:42:01;;;;;;;77.18;46.47;;;6.00;99.90;;;;;;4995480;28;20135;-88
2022/03/25 07:44:27;;;;;;;69.63;42.83;;;5.70;99.90;;;;;;4987003;28;20060;-88
2022/03/25 07:46:53;;;;;;;69.57;43.45;;;6.30;99.90;;;;;;4989861;28;20036;-88
2022/03/25 07:49:19;;;;;;;63.05;40.38;;;6.30;99.90;;;;;;5011610;28;20491;-87
2022/03/25 07:51:44;;;;;;;64.22;40.67;;;6.00;99.90;;;;;;5004476;28;20037;-86
2022/03/25 07:54:10;;;;;;;66.78;39.67;;;7.50;99.90;;;;;;4978647;28;20128;-88
2022/03/25 07:56:42;;;;;;;62.08;38.85;;;6.20;99.90;;;;;;4975828;28;20422;-89
2022/03/25 07:59:08;;;;;;;62.45;38.92;;;6.60;99.90;;;;;;4985071;28;20862;-88
2022/03/25 08:01:34;;;;;;;58.35;35.63;;;5.70;99.90;;;;;;4992200;28;20109;-87
2022/03/25 08:04:03;;;;;;;58.38;35.78;;;7.40;99.90;;;;;;4976969;28;20049;-87
2022/03/25 08:06:29;;;;;;;59.80;38.22;;;6.60;99.90;;;;;;4976360;28;20149;-87
2022/03/25 08:08:55;;;;;;;65.80;35.42;;;7.00;99.90;;;;;;4981864;28;20053;-87
2022/03/25 08:11:21;;;;;;;49.63;33.55;;;6.80;99.90;;;;;;4974725;28;20041;-87
2022/03/25 08:13:47;;;;;;;50.92;32.38;;;7.00;99.90;;;;;;4979149;28;20050;-87
2022/03/25 08:16:16;;;;;;;49.95;31.20;;;6.60;99.90;;;;;;4980298;28;20081;-89
2022/03/25 08:18:43;;;;;;;46.78;29.48;;;8.40;99.90;;;;;;4985561;28;20052;-89
2022/03/25 08:21:10;;;;;;;53.42;28.17;;;6.70;99.90;;;;;;4994170;28;20103;-90
2022/03/25 08:29:04;;;;;;;39.75;23.85;;;8.50;99.90;;;;;;4997777;28;20112;-87
2022/03/25 08:31:30;;;;;;;39.67;25.08;;;7.90;99.90;;;;;;4981738;28;20046;-89
2022/03/25 08:34:13;;;;;;;37.55;24.20;;;8.30;99.90;;;;;;4985342;28;20045;-89
2022/03/25 08:36:39;;;;;;;40.67;24.50;;;8.00;99.90;;;;;;4982202;28;20444;-88
2022/03/25 08:39:04;;;;;;;38.85;23.73;;;9.00;99.90;;;;;;4978186;28;20064;-89
2022/03/25 08:41:30;;;;;;;35.40;22.55;;;9.00;99.90;;;;;;4988938;28;20139;-88
2022/03/25 08:43:56;;;;;;;35.80;22.33;;;9.20;99.90;;;;;;4980068;28;20056;-89
2022/03/25 08:46:21;;;;;;;33.78;21.88;;;9.30;99.90;;;;;;4988543;28;20049;-87
2022/03/25 08:48:47;;;;;;;36.35;22.33;;;8.70;99.90;;;;;;4981991;28;20038;-87
2022/03/25 08:51:13;;;;;;;39.45;22.90;;;9.00;99.90;;;;;;4983916;28;20482;-88
2022/03/25 08:53:40;;;;;;;36.85;22.88;;;8.50;99.90;;;;;;4993497;28;20049;-87
2022/03/25 08:56:06;;;;;;;36.03;23.95;;;9.00;99.90;;;;;;4991079;28;20045;-88
2022/03/25 08:58:32;;;;;;;39.35;23.77;;;8.70;99.90;;;;;;4979280;28;20056;-88
2022/03/25 09:00:58;;;;;;;36.47;22.45;;;9.80;99.90;;;;;;4978604;28;20048;-87
2022/03/25 09:03:23;;;;;;;36.58;22.88;;;9.70;99.90;;;;;;4973898;28;20050;-88
2022/03/25 09:05:49;;;;;;;34.38;22.45;;;9.80;99.90;;;;;;4980100;28;20128;-86
2022/03/25 09:08:15;;;;;;;35.17;22.70;;;9.20;99.90;;;;;;4984095;28;20108;-87
2022/03/25 09:10:41;;;;;;;39.30;21.60;;;9.60;99.90;;;;;;4983920;28;20053;-87
2022/03/25 09:13:07;;;;;;;34.08;20.90;;;9.30;99.90;;;;;;4979494;28;20050;-87
2022/03/25 09:15:32;;;;;;;32.83;20.92;;;10.40;99.90;;;;;;4979944;28;20552;-88
2022/03/25 09:17:58;;;;;;;34.67;19.48;;;9.50;99.90;;;;;;4980125;28;20080;-86
2022/03/25 09:20:24;;;;;;;35.75;20.60;;;9.60;99.90;;;;;;4983283;28;20057;-86
2022/03/25 09:22:53;;;;;;;35.05;19.63;;;9.70;99.90;;;;;;4976935;28;20100;-87
2022/03/25 09:25:35;;;;;;;37.90;19.50;;;9.80;99.90;;;;;;4979344;28;20408;-87
2022/03/25 09:28:01;;;;;;;38.08;20.38;;;9.70;99.90;;;;;;4988525;28;20137;-86
2022/03/25 09:30:27;;;;;;;33.97;18.67;;;10.30;99.90;;;;;;4985647;28;20132;-86
2022/03/25 09:33:13;;;;;;;33.20;20.08;;;10.80;99.90;;;;;;4974483;28;20048;-88
2022/03/25 09:35:41;;;;;;;34.00;18.98;;;11.20;99.90;;;;;;4973757;28;20143;-88
2022/03/25 09:38:06;;;;;;;29.67;18.00;;;11.30;99.90;;;;;;4973966;28;20132;-87
2022/03/25 09:40:33;;;;;;;37.17;17.95;;;10.40;99.90;;;;;;4974214;28;20128;-87
2022/03/25 09:42:59;;;;;;;33.72;19.52;;;11.20;99.90;;;;;;4989265;28;20045;-87
2022/03/25 09:45:35;;;;;;;29.85;18.10;;;10.90;99.90;;;;;;4973300;28;20038;-87
2022/03/25 09:48:01;;;;;;;35.50;18.83;;;11.40;99.90;;;;;;4973913;28;20046;-86
2022/03/25 09:50:39;;;;;;;38.80;19.15;;;11.30;99.90;;;;;;4973054;28;20081;-87
2022/03/25 09:53:06;;;;;;;34.50;17.88;;;10.90;99.90;;;;;;4976841;28;20053;-86
2022/03/25 09:55:37;;;;;;;31.88;18.83;;;11.40;99.90;;;;;;4977128;28;20552;-86
2022/03/25 09:58:03;;;;;;;33.70;19.15;;;11.10;99.90;;;;;;4977260;28;20046;-86
2022/03/25 10:00:29;;;;;;;32.97;18.77;;;11.20;99.90;;;;;;4976463;28;20401;-86
2022/03/25 10:02:54;;;;;;;36.60;20.00;;;11.60;99.90;;;;;;4976128;28;20061;-87
2022/03/25 10:05:22;;;;;;;33.33;20.08;;;11.60;99.90;;;;;;4993545;28;20534;-87
2022/03/25 10:08:00;;;;;;;33.33;19.60;;;12.10;99.90;;;;;;4977100;28;20045;-86
2022/03/25 10:10:38;;;;;;;31.45;20.63;;;12.60;99.90;;;;;;4976047;28;20049;-87
2022/03/25 10:13:07;;;;;;;35.70;20.58;;;11.70;99.90;;;;;;4993082;28;20049;-85
2022/03/25 10:15:37;;;;;;;36.25;19.38;;;11.70;99.90;;;;;;4976596;28;20056;-85
2022/03/25 10:18:06;;;;;;;38.80;21.42;;;11.70;99.90;;;;;;4992040;28;20056;-87
2022/03/25 10:20:36;;;;;;;40.25;20.45;;;11.80;99.90;;;;;;4992970;28;20056;-85
2022/03/25 10:23:06;;;;;;;37.47;21.63;;;11.80;99.90;;;;;;4992390;28;20050;-85
2022/03/25 10:25:37;;;;;;;33.55;21.55;;;11.90;99.90;;;;;;4975978;28;20048;-86
2022/03/25 10:28:05;;;;;;;33.65;21.27;;;12.00;99.90;;;;;;4976258;28;20044;-86
2022/03/25 10:30:39;;;;;;;37.40;22.83;;;12.00;99.90;;;;;;4975962;28;20049;-87
2022/03/25 10:33:12;;;;;;;37.47;22.65;;;12.10;99.90;;;;;;4975606;28;20386;-87
2022/03/25 10:35:56;;;;;;;39.38;22.13;;;12.10;99.90;;;;;;4992695;28;20133;-87
2022/03/25 10:38:22;;;;;;;36.72;21.92;;;12.20;99.90;;;;;;4975132;28;20379;-86
2022/03/25 10:40:57;;;;;;;40.13;22.55;;;12.40;99.90;;;;;;4992816;28;20042;-86
2022/03/25 10:43:24;;;;;;;38.55;23.10;;;12.40;99.90;;;;;;4991646;28;20041;-85
2022/03/25 10:45:56;;;;;;;38.10;23.30;;;12.50;99.90;;;;;;4975046;28;20037;-86
2022/03/25 10:48:22;;;;;;;37.60;22.73;;;12.30;99.90;;;;;;4975467;28;20140;-87
2022/03/25 10:51:05;;;;;;;40.03;26.02;;;12.90;99.90;;;;;;4976367;28;20133;-85
2022/03/25 10:53:34;;;;;;;34.70;23.70;;;12.80;99.90;;;;;;4991732;28;20049;-86
2022/03/25 10:56:03;;;;;;;36.80;24.58;;;12.90;99.90;;;;;;4974728;28;20520;-87
2022/03/25 10:58:29;;;;;;;36.10;23.35;;;12.90;99.90;;;;;;4983296;28;20404;-79
2022/03/25 11:00:55;;;;;;;40.33;22.65;;;13.00;99.90;;;;;;4994935;28;20489;-79
2022/03/25 11:03:22;;;;;;;35.95;23.20;;;13.00;99.90;;;;;;4984470;28;20099;-87
2022/03/25 11:05:48;;;;;;;40.20;22.75;;;13.10;99.90;;;;;;4987157;28;20045;-88
2022/03/25 11:08:14;;;;;;;41.45;21.88;;;13.20;99.90;;;;;;4992452;28;20060;-87
2022/03/25 11:10:40;;;;;;;40.20;23.60;;;13.20;99.90;;;;;;4984523;28;20045;-80
2022/03/25 11:13:06;;;;;;;36.35;21.25;;;13.30;99.90;;;;;;4994242;28;20041;-80
2022/03/25 11:15:32;;;;;;;38.53;20.63;;;13.70;99.90;;;;;;4988250;28;20037;-81
2022/03/25 11:17:58;;;;;;;42.63;21.60;;;13.40;99.90;;;;;;4991860;28;20057;-87
2022/03/25 11:20:26;;;;;;;39.80;21.65;;;13.50;99.90;;;;;;4983524;28;20497;-89
2022/03/25 11:22:55;;;;;;;37.65;19.88;;;13.50;99.90;;;;;;4991258;28;20042;-89
2022/03/25 11:25:22;;;;;;;36.20;19.73;;;13.60;99.90;;;;;;4978611;28;20497;-82
2022/03/25 11:27:53;;;;;;;37.75;21.15;;;13.70;99.90;;;;;;5004720;28;20592;-82
2022/03/25 11:30:19;;;;;;;36.03;21.05;;;13.80;99.90;;;;;;5000848;28;20046;-82
2022/03/25 11:33:07;;;;;;;38.35;21.00;;;13.80;99.90;;;;;;4975755;28;20037;-82
2022/03/25 11:35:39;;;;;;;38.42;20.88;;;13.90;99.90;;;;;;4980840;28;20405;-82
2022/03/25 11:38:11;;;;;;;30.40;19.30;;;14.00;99.90;;;;;;4999310;28;20954;-82
2022/03/25 11:40:39;;;;;;;42.30;19.40;;;14.00;99.90;;;;;;5003980;28;20046;-82
2022/03/25 11:43:15;;;;;;;35.35;19.40;;;14.10;99.90;;;;;;4990647;28;20041;-82
2022/03/25 11:45:43;;;;;;;34.28;17.77;;;14.10;99.80;;;;;;4997996;28;20053;-82
2022/03/25 11:48:28;;;;;;;37.42;16.38;;;14.10;99.70;;;;;;4998461;28;20809;-82
2022/03/25 11:50:56;;;;;;;34.58;16.58;;;14.10;99.90;;;;;;4999439;28;20386;-82
2022/03/25 11:53:22;;;;;;;30.42;16.73;;;14.20;98.10;;;;;;5007524;28;20061;-82
2022/03/25 11:55:54;;;;;;;29.98;17.33;;;14.30;97.50;;;;;;4998357;28;20054;-82
2022/03/25 11:58:20;;;;;;;30.60;17.23;;;14.30;97.40;;;;;;5007873;28;20818;-82
2022/03/25 12:00:49;;;;;;;22.23;15.43;;;14.30;97.40;;;;;;4988424;28;20057;-83
2022/03/25 12:03:15;;;;;;;31.60;17.00;;;14.40;95.60;;;;;;4990748;28;20053;-83
2022/03/25 12:05:59;;;;;;;28.83;15.45;;;14.40;93.80;;;;;;4999714;28;20045;-83
2022/03/25 12:08:28;;;;;;;34.55;16.02;;;14.40;93.00;;;;;;4991539;28;20421;-81
2022/03/25 12:10:55;;;;;;;30.08;15.05;;;14.40;93.20;;;;;;4997594;28;20088;-82
2022/03/25 12:13:22;;;;;;;34.00;15.77;;;14.50;92.60;;;;;;4995683;28;20132;-83
2022/03/25 12:15:51;;;;;;;33.30;14.68;;;14.60;91.00;;;;;;4992961;28;20107;-83
2022/03/25 12:18:40;;;;;;;32.35;14.88;;;14.50;90.60;;;;;;4997599;28;20406;-83
2022/03/25 12:21:25;;;;;;;26.35;13.57;;;14.40;86.00;;;;;;4997787;28;20129;-84
2022/03/25 12:23:55;;;;;;;29.30;11.80;;;14.50;82.90;;;;;;4980675;28;20556;-86
2022/03/25 12:26:33;;;;;;;30.77;13.98;;;14.50;82.80;;;;;;4992953;28;20037;-88
2022/03/25 12:28:59;;;;;;;27.30;12.70;;;14.50;80.40;;;;;;4994410;28;20412;-87
2022/03/25 12:31:25;;;;;;;29.95;13.18;;;14.60;81.90;;;;;;4994277;28;20046;-88
2022/03/25 12:33:56;;;;;;;22.95;12.30;;;14.80;78.50;;;;;;4995338;28;20091;-89
2022/03/25 12:36:41;;;;;;;27.80;12.88;;;14.40;74.20;;;;;;5011233;28;20041;-88
2022/03/25 12:39:13;;;;;;;22.52;12.63;;;14.50;73.80;;;;;;4994210;28;20388;-89